Puerto Iguazu, Argentina
Current Conditions -  °F | °C
As of 9:00 AM on Thursday 30 Oct 2014 (Local Time) from SBFI Reporting Station
Clear Clear  
Wind Chill: 88°   Ceiling: Unl
Heat Index: 93°   Visibility: 6mi
Dew Point: 70°   Wind: 16mph
Humidity: 55%   Direction: 320°NW
Pressure: 29.74"   Gusts: NA
Location:  25.57°S, 54.57°W
Report Text: SBFI 301200Z 32014KT CAVOK 31/21 Q1007
Loading
Personal Weather Stations






























Interactive Weather Map
Tropical Storm Tracking
New forecast layout! Learn more

10-Day Weather Forecast

Advertisements
Track Severe Weather on mobile